Time;durP1;ratioP1;P1;durP2;ratioP2;P2;SDS_P1;SDS_P2;PMS_P1;PMS_P2;Temp;Humidity;BMP_temperature;BMP_pressure;BME280_temperature;BME280_humidity;BME280_pressure;Samples;Min_cycle;Max_cycle;Signal;HPM_P1;HPM_P2
2022/07/27 00:01:33;;;;;;;11.45;10.52;;;;;;;25.79;62.67;98769.28;5070064;28;20230;-60
2022/07/27 00:04:02;;;;;;;12.15;10.85;;;;;;;25.66;62.47;98745.78;5070134;28;20282;-61
2022/07/27 00:06:29;;;;;;;11.73;10.90;;;;;;;25.82;62.60;98778.78;5070329;28;20228;-61
2022/07/27 00:08:55;;;;;;;11.13;10.43;;;;;;;25.75;63.02;98778.56;5070071;28;20204;-60
2022/07/27 00:11:22;;;;;;;13.10;11.82;;;;;;;25.78;63.28;98775.59;5069987;28;20574;-60
2022/07/27 00:13:49;;;;;;;18.00;16.25;;;;;;;25.76;63.15;98780.22;5069961;28;20681;-61
2022/07/27 00:16:16;;;;;;;17.63;15.65;;;;;;;25.73;63.61;98779.72;5077378;28;20195;-60
2022/07/27 00:18:43;;;;;;;18.15;16.27;;;;;;;25.73;63.76;98785.03;5090113;28;20286;-61
2022/07/27 00:21:11;;;;;;;22.05;17.10;;;;;;;25.72;63.84;98791.34;5090278;28;20219;-60
2022/07/27 00:23:39;;;;;;;19.20;16.92;;;;;;;25.67;64.07;98789.16;5090285;28;20585;-59
2022/07/27 00:26:06;;;;;;;18.40;16.55;;;;;;;25.52;64.84;98791.50;5090156;28;20589;-60
2022/07/27 00:28:33;;;;;;;16.02;14.52;;;;;;;25.47;65.35;98790.31;5089975;28;20195;-61
2022/07/27 00:31:00;;;;;;;17.23;15.52;;;;;;;25.39;65.83;98790.28;5089972;28;20282;-60
2022/07/27 00:33:27;;;;;;;15.90;14.25;;;;;;;25.20;67.08;98785.97;5089991;28;20201;-72
2022/07/27 00:35:54;;;;;;;16.13;14.20;;;;;;;25.12;67.69;98792.06;5089989;28;20199;-74
2022/07/27 00:38:22;;;;;;;17.60;14.20;;;;;;;25.09;67.96;98792.38;5090019;28;20625;-74
2022/07/27 00:40:49;;;;;;;16.23;14.55;;;;;;;25.19;67.91;98787.78;5089860;28;20226;-72
2022/07/27 00:43:15;;;;;;;17.10;14.65;;;;;;;25.29;67.48;98788.53;5089894;28;20210;-73
2022/07/27 00:45:42;;;;;;;19.50;17.55;;;;;;;25.24;67.52;98795.31;5090326;28;20700;-75
2022/07/27 00:48:09;;;;;;;21.60;18.13;;;;;;;25.04;68.50;98788.53;5089686;28;20231;-72
2022/07/27 00:50:37;;;;;;;28.20;24.27;;;;;;;25.08;68.73;98792.50;5090065;28;20207;-72
2022/07/27 00:53:04;;;;;;;24.90;20.83;;;;;;;25.02;69.47;98801.09;5089805;28;20278;-72
2022/07/27 00:55:33;;;;;;;19.33;17.50;;;;;;;24.98;69.67;98799.72;5089652;28;20191;-72
2022/07/27 00:58:00;;;;;;;21.73;15.02;;;;;;;24.94;69.97;98794.72;5089950;28;20203;-73
2022/07/27 01:00:27;;;;;;;17.33;13.93;;;;;;;24.90;70.52;98797.81;5089335;28;20215;-72
2022/07/27 01:02:54;;;;;;;16.67;13.98;;;;;;;24.87;71.65;98803.41;5089649;28;20199;-73
2022/07/27 01:05:21;;;;;;;16.33;14.65;;;;;;;24.81;72.95;98796.09;5089726;28;20665;-70
2022/07/27 01:07:49;;;;;;;16.60;14.82;;;;;;;24.71;74.06;98793.50;5089618;28;20197;-68
2022/07/27 01:10:16;;;;;;;16.90;14.23;;;;;;;24.71;74.51;98797.97;5089590;28;20202;-68
2022/07/27 01:12:46;;;;;;;17.52;15.82;;;;;;;24.75;75.18;98794.00;5089748;28;20202;-68
2022/07/27 01:15:13;;;;;;;16.63;15.13;;;;;;;24.75;75.13;98797.50;5091151;28;20195;-69
2022/07/27 01:17:40;;;;;;;16.10;14.65;;;;;;;24.85;75.01;98792.94;5093637;28;20230;-67
2022/07/27 01:20:08;;;;;;;16.42;14.80;;;;;;;24.89;74.93;98790.84;5093635;28;20605;-69
2022/07/27 01:22:37;;;;;;;16.70;15.23;;;;;;;24.89;75.26;98804.13;5093457;28;20213;-69
2022/07/27 01:25:04;;;;;;;16.08;14.60;;;;;;;24.78;75.56;98804.34;5093545;28;20199;-68
2022/07/27 01:27:31;;;;;;;17.40;16.00;;;;;;;24.72;75.71;98805.75;5093761;28;20190;-69
2022/07/27 01:29:58;;;;;;;16.67;15.00;;;;;;;24.71;75.65;98816.56;5093543;28;20264;-72
2022/07/27 01:32:25;;;;;;;15.98;14.55;;;;;;;24.77;74.83;98807.97;5093419;28;20195;-72
2022/07/27 01:34:51;;;;;;;17.30;15.50;;;;;;;24.79;73.89;98806.84;5093440;28;20206;-72
2022/07/27 01:37:18;;;;;;;16.40;14.95;;;;;;;24.76;74.11;98812.44;5093674;28;20687;-73
2022/07/27 01:39:47;;;;;;;16.63;14.93;;;;;;;24.73;74.15;98810.09;5093500;28;20207;-72
2022/07/27 01:42:15;;;;;;;15.70;13.55;;;;;;;24.67;74.05;98809.88;5093635;28;20660;-73
2022/07/27 01:44:42;;;;;;;14.07;12.82;;;;;;;24.59;74.04;98806.16;5093429;28;20222;-72
2022/07/27 01:47:08;;;;;;;13.93;12.45;;;;;;;24.63;73.85;98811.13;5092866;28;20196;-70
2022/07/27 01:49:35;;;;;;;16.95;11.65;;;;;;;24.65;73.64;98804.72;5093193;28;20230;-68
2022/07/27 01:52:02;;;;;;;14.40;12.10;;;;;;;24.74;73.17;98802.97;5092931;28;20191;-68
2022/07/27 01:54:29;;;;;;;13.52;12.35;;;;;;;24.64;73.21;98792.41;5093023;28;20195;-69
2022/07/27 01:56:57;;;;;;;12.63;11.35;;;;;;;24.63;73.56;98809.31;5093055;28;20590;-69
2022/07/27 01:59:24;;;;;;;13.93;11.60;;;;;;;24.67;73.55;98796.59;5092993;28;20624;-69
2022/07/27 02:01:51;;;;;;;13.50;12.40;;;;;;;24.71;73.41;98811.25;5092879;28;20223;-69
2022/07/27 02:04:18;;;;;;;12.77;11.50;;;;;;;24.74;72.96;98808.28;5092990;28;20206;-69
2022/07/27 02:06:44;;;;;;;15.95;12.50;;;;;;;24.56;72.60;98795.84;5092948;28;20260;-69
2022/07/27 02:09:11;;;;;;;12.27;11.27;;;;;;;24.61;72.58;98814.78;5092620;28;20206;-70
2022/07/27 02:14:24;;;;;;;12.73;11.52;;;;;;;24.53;73.00;98809.41;5092679;28;20197;-59
2022/07/27 02:16:51;;;;;;;13.43;12.07;;;;;;;24.46;72.63;98816.28;5092622;28;20589;-58
2022/07/27 02:19:18;;;;;;;12.38;11.45;;;;;;;24.37;72.78;98817.19;5092612;28;20268;-59
2022/07/27 02:21:45;;;;;;;15.52;12.63;;;;;;;24.22;73.67;98814.19;5092807;28;20784;-58
2022/07/27 02:24:12;;;;;;;23.40;16.23;;;;;;;24.19;74.37;98814.44;5092415;28;20573;-59
2022/07/27 02:26:39;;;;;;;24.65;17.70;;;;;;;24.15;74.91;98817.56;5091197;28;20191;-58
2022/07/27 02:29:05;;;;;;;32.65;17.65;;;;;;;24.13;75.60;98814.22;5092216;28;20207;-59
2022/07/27 02:31:34;;;;;;;23.60;18.58;;;;;;;24.02;75.41;98812.59;5092227;28;20194;-69
2022/07/27 02:34:01;;;;;;;25.30;18.25;;;;;;;23.93;75.85;98797.53;5092241;28;20204;-70
2022/07/27 02:36:28;;;;;;;23.15;17.63;;;;;;;24.08;75.49;98804.03;5092371;28;20719;-69
2022/07/27 02:38:55;;;;;;;21.88;17.38;;;;;;;24.05;75.81;98814.91;5092075;28;20199;-72
2022/07/27 02:41:22;;;;;;;19.08;16.05;;;;;;;24.13;76.14;98814.22;5092238;28;20230;-71
2022/07/27 02:43:48;;;;;;;18.13;15.95;;;;;;;24.10;75.85;98812.69;5092056;28;20202;-71
2022/07/27 02:46:15;;;;;;;17.45;15.75;;;;;;;24.03;76.51;98818.72;5091871;28;20588;-66
2022/07/27 02:48:43;;;;;;;19.23;14.60;;;;;;;24.04;76.46;98805.28;5081832;28;20220;-71
2022/07/27 02:51:10;;;;;;;18.60;14.20;;;;;;;24.04;76.73;98812.44;5080427;28;20192;-71
2022/07/27 02:53:37;;;;;;;16.05;14.00;;;;;;;24.10;76.59;98817.97;5081497;28;20278;-72
2022/07/27 02:56:04;;;;;;;15.70;14.20;;;;;;;24.15;76.44;98814.91;5081591;28;20581;-71
2022/07/27 02:58:31;;;;;;;16.67;14.25;;;;;;;24.11;76.64;98821.47;5080384;28;20203;-71
2022/07/27 03:00:58;;;;;;;14.75;13.25;;;;;;;24.14;76.60;98821.19;5079430;28;20211;-70
2022/07/27 03:03:25;;;;;;;18.50;14.85;;;;;;;24.18;76.48;98826.03;5071568;28;20586;-72
2022/07/27 03:05:53;;;;;;;19.70;14.23;;;;;;;24.14;76.93;98826.50;5076238;28;20238;-69
2022/07/27 03:08:20;;;;;;;15.55;14.05;;;;;;;24.13;77.18;98825.66;5079530;28;20669;-72
2022/07/27 03:10:47;;;;;;;16.70;14.82;;;;;;;24.00;77.97;98822.50;5080074;28;20206;-60
2022/07/27 03:13:14;;;;;;;22.30;15.32;;;;;;;24.01;78.42;98826.81;5080930;28;20203;-59
2022/07/27 03:15:41;;;;;;;23.13;16.45;;;;;;;23.97;78.56;98827.25;5079599;28;20196;-68
2022/07/27 03:18:08;;;;;;;23.88;17.08;;;;;;;23.90;78.73;98824.34;5080169;28;20609;-69
2022/07/27 03:20:34;;;;;;;27.92;18.25;;;;;;;24.00;78.55;98833.09;5084215;28;20187;-65
2022/07/27 03:23:03;;;;;;;31.65;18.83;;;;;;;24.11;78.08;98835.56;5083030;28;20707;-65
2022/07/27 03:25:30;;;;;;;25.88;18.42;;;;;;;24.00;78.55;98834.91;5110741;28;20599;-65
2022/07/27 03:27:56;;;;;;;26.05;17.95;;;;;;;23.82;79.70;98837.47;5110076;28;20220;-65
2022/07/27 03:30:23;;;;;;;22.95;18.88;;;;;;;23.78;79.93;98847.53;5110286;28;20218;-65
2022/07/27 03:32:50;;;;;;;23.90;18.23;;;;;;;23.81;80.54;98857.03;5110147;28;20777;-65
2022/07/27 03:35:17;;;;;;;22.73;17.10;;;;;;;23.84;81.67;98852.25;5110024;28;20723;-66
2022/07/27 03:37:44;;;;;;;18.60;16.60;;;;;;;23.87;83.61;98857.28;5109996;28;20218;-65
2022/07/27 03:40:12;;;;;;;23.15;18.08;;;;;;;23.79;85.44;98857.16;5109976;28;20237;-65
2022/07/27 03:42:39;;;;;;;20.92;18.67;;;;;;;23.78;86.03;98852.84;5110017;28;20218;-66
2022/07/27 03:45:08;;;;;;;28.30;18.73;;;;;;;23.83;85.60;98849.75;5109845;28;20222;-67
2022/07/27 03:47:35;;;;;;;21.50;19.23;;;;;;;23.76;85.92;98865.38;5093711;28;20305;-73
2022/07/27 03:50:02;;;;;;;20.60;18.65;;;;;;;23.94;84.75;98869.94;5079485;28;20728;-74
2022/07/27 03:52:29;;;;;;;20.20;18.17;;;;;;;24.01;83.42;98868.41;5079225;28;20218;-73
2022/07/27 03:54:56;;;;;;;21.80;19.63;;;;;;;24.00;83.00;98856.13;5071623;28;20601;-73
2022/07/27 03:57:25;;;;;;;23.80;18.27;;;;;;;24.16;82.41;98870.41;5075322;28;20220;-59
2022/07/27 03:59:52;;;;;;;21.63;19.23;;;;;;;24.71;78.96;98864.31;5077505;28;20215;-60
2022/07/27 04:02:19;;;;;;;24.50;18.63;;;;;;;25.60;74.16;98881.09;5076081;28;20226;-60
2022/07/27 04:04:45;;;;;;;20.45;18.27;;;;;;;26.23;69.98;98857.75;5078170;28;20227;-61
2022/07/27 04:07:12;;;;;;;19.13;17.15;;;;;;;27.00;65.70;98879.84;5079027;28;20219;-58
2022/07/27 04:09:39;;;;;;;20.13;17.05;;;;;;;27.43;63.33;98881.38;5089686;28;20223;-60
2022/07/27 04:12:07;;;;;;;18.85;16.90;;;;;;;28.27;59.70;98893.47;5087800;28;20640;-73
2022/07/27 04:14:35;;;;;;;18.77;17.17;;;;;;;29.06;56.20;98890.63;5074062;28;20207;-74
2022/07/27 04:17:02;;;;;;;17.83;16.42;;;;;;;29.82;53.11;98904.91;5077540;28;20221;-60
2022/07/27 04:19:29;;;;;;;17.85;16.15;;;;;;;30.30;51.50;98901.78;5078502;28;20228;-60
2022/07/27 04:21:56;;;;;;;18.63;16.98;;;;;;;30.66;49.96;98904.53;5071016;28;20227;-61
2022/07/27 04:24:22;;;;;;;18.73;16.10;;;;;;;31.11;48.80;98912.50;5101866;28;20734;-60
2022/07/27 04:26:49;;;;;;;17.80;16.10;;;;;;;31.38;48.07;98911.72;5109357;28;20607;-58
2022/07/27 04:29:16;;;;;;;19.35;17.33;;;;;;;31.64;46.56;98913.88;5108983;28;20222;-58
2022/07/27 04:31:45;;;;;;;18.75;17.10;;;;;;;31.74;46.02;98920.56;5108503;28;20214;-57
2022/07/27 04:34:11;;;;;;;20.25;16.98;;;;;;;32.03;45.72;98914.19;5108891;28;20691;-57
2022/07/27 04:36:38;;;;;;;17.65;15.55;;;;;;;32.72;44.30;98924.16;5087891;28;20673;-58
2022/07/27 04:39:05;;;;;;;23.20;16.42;;;;;;;33.39;42.63;98923.31;5067497;28;20253;-57
2022/07/27 04:41:32;;;;;;;21.05;15.65;;;;;;;33.68;41.13;98928.31;5068409;28;20226;-58
2022/07/27 04:43:59;;;;;;;18.58;16.33;;;;;;;33.76;40.92;98920.06;5072073;28;20191;-58
2022/07/27 04:46:26;;;;;;;31.88;19.00;;;;;;;33.52;41.02;98929.53;5073582;28;20195;-59
2022/07/27 04:48:55;;;;;;;23.00;16.92;;;;;;;34.27;39.16;98930.19;5073271;28;20234;-59
2022/07/27 04:51:22;;;;;;;17.35;15.70;;;;;;;34.71;38.19;98928.59;5076836;28;20188;-58
2022/07/27 04:53:48;;;;;;;19.90;15.07;;;;;;;35.74;36.52;98938.25;5078443;28;20191;-58
2022/07/27 04:56:15;;;;;;;19.20;15.20;;;;;;;36.48;35.16;98931.09;5078548;28;20196;-57
2022/07/27 04:58:42;;;;;;;16.15;13.85;;;;;;;36.64;34.62;98944.88;5076724;28;20191;-67
2022/07/27 05:01:11;;;;;;;15.77;14.43;;;;;;;37.17;34.07;98949.66;5077744;28;20195;-68
2022/07/27 05:03:38;;;;;;;17.08;14.57;;;;;;;37.79;32.69;98950.22;5079747;28;20206;-68
2022/07/27 05:06:07;;;;;;;15.57;14.05;;;;;;;38.23;32.41;98961.56;5089275;28;20199;-67
2022/07/27 05:08:34;;;;;;;14.57;13.38;;;;;;;38.44;31.54;98956.38;5089658;28;20584;-68
2022/07/27 05:11:01;;;;;;;14.13;12.73;;;;;;;39.17;30.65;98958.44;5089422;28;20198;-67
2022/07/27 05:13:28;;;;;;;18.80;16.90;;;;;;;39.83;29.92;98953.41;5089391;28;20195;-67
2022/07/27 05:15:55;;;;;;;14.85;13.15;;;;;;;40.02;29.29;98954.81;5089552;28;20201;-57
2022/07/27 05:18:21;;;;;;;15.23;14.02;;;;;;;39.61;30.11;98957.94;5089384;28;20640;-57
2022/07/27 05:20:48;;;;;;;16.08;14.52;;;;;;;39.85;29.56;98964.88;5089409;28;20199;-58
2022/07/27 05:23:17;;;;;;;18.25;15.98;;;;;;;39.73;29.96;98962.19;5089266;28;20226;-59
2022/07/27 05:25:44;;;;;;;16.70;15.38;;;;;;;39.67;30.00;98955.03;5089251;28;20203;-59
2022/07/27 05:28:12;;;;;;;15.85;13.70;;;;;;;39.20;30.72;98957.16;5089349;28;20199;-57
2022/07/27 05:30:39;;;;;;;15.27;13.68;;;;;;;38.98;31.64;98970.56;5089521;28;20252;-57
2022/07/27 05:33:06;;;;;;;21.27;17.75;;;;;;;39.13;31.29;98959.19;5085053;28;20198;-57
2022/07/27 05:35:33;;;;;;;20.38;14.43;;;;;;;39.55;30.36;98967.88;5086087;28;20191;-66
2022/07/27 05:38:00;;;;;;;19.17;13.82;;;;;;;39.13;31.67;98972.78;5089008;28;20209;-67
2022/07/27 05:40:29;;;;;;;16.38;15.07;;;;;;;39.33;31.02;98956.84;5089276;28;20199;-57
2022/07/27 05:42:56;;;;;;;16.35;14.98;;;;;;;39.61;30.39;98969.63;5089226;28;20223;-68
2022/07/27 05:45:24;;;;;;;14.70;13.13;;;;;;;40.15;29.83;98980.84;5088976;28;20195;-68
2022/07/27 05:47:53;;;;;;;15.50;13.57;;;;;;;39.87;30.10;98979.03;5089261;28;20708;-69
2022/07/27 05:50:20;;;;;;;14.27;12.95;;;;;;;39.71;30.09;98971.69;5089294;28;20600;-68
2022/07/27 05:52:47;;;;;;;13.18;12.07;;;;;;;39.99;29.92;98977.06;5089455;28;20191;-68
2022/07/27 05:55:14;;;;;;;13.35;12.15;;;;;;;40.13;29.48;98978.38;5088812;28;20195;-67
2022/07/27 05:57:42;;;;;;;13.15;12.00;;;;;;;40.51;29.04;98984.94;5089148;28;20210;-67
2022/07/27 06:00:11;;;;;;;13.65;12.27;;;;;;;40.99;28.43;98970.59;5082424;28;20191;-68
2022/07/27 06:02:38;;;;;;;16.88;11.85;;;;;;;41.01;28.54;98976.63;5072367;28;20219;-69
2022/07/27 06:05:05;;;;;;;12.07;11.00;;;;;;;41.60;27.60;98983.03;5072749;28;20824;-69
2022/07/27 06:21:01;;;;;;;12.50;11.60;;;;;;;39.28;30.49;98970.31;5126738;27;20541;-57
2022/07/27 06:23:28;;;;;;;15.25;12.20;;;;;;;39.99;30.00;98974.34;5128136;28;20194;-63
2022/07/27 06:25:55;;;;;;;15.63;12.23;;;;;;;40.75;28.72;98964.59;5128494;28;20218;-58
2022/07/27 06:28:22;;;;;;;13.48;12.40;;;;;;;40.29;29.14;98965.06;5127868;28;20298;-59
2022/07/27 06:30:49;;;;;;;14.50;12.75;;;;;;;39.71;29.87;98963.53;5127223;28;20190;-64
2022/07/27 06:33:16;;;;;;;13.95;12.52;;;;;;;40.32;28.80;98967.25;5127258;28;20676;-58
2022/07/27 06:35:43;;;;;;;13.55;11.95;;;;;;;40.32;29.32;98967.25;5127897;28;20288;-58
2022/07/27 06:38:11;;;;;;;13.82;12.35;;;;;;;40.19;29.18;98971.94;5127951;28;20284;-58
2022/07/27 06:40:38;;;;;;;13.45;12.02;;;;;;;40.08;29.29;98972.03;5127772;28;20302;-58
2022/07/27 06:43:05;;;;;;;14.00;12.73;;;;;;;40.10;29.43;98961.72;5127473;28;20202;-58
2022/07/27 06:45:32;;;;;;;16.35;12.75;;;;;;;38.91;30.58;98963.63;5127651;28;20194;-58
2022/07/27 06:47:59;;;;;;;14.48;13.00;;;;;;;39.22;30.88;98960.44;5127746;28;20679;-58
2022/07/27 06:50:26;;;;;;;17.73;12.27;;;;;;;39.22;31.14;98964.00;5127536;28;20233;-58
2022/07/27 06:52:53;;;;;;;13.95;12.48;;;;;;;39.51;30.70;98959.38;5127528;28;20193;-58
2022/07/27 06:55:22;;;;;;;14.88;13.20;;;;;;;39.43;30.53;98950.81;5127461;28;20224;-58
2022/07/27 06:57:49;;;;;;;21.33;13.48;;;;;;;39.38;30.63;98945.28;5127272;28;20187;-58
2022/07/27 07:00:16;;;;;;;13.55;12.18;;;;;;;39.22;30.72;98939.56;5126995;28;20189;-59
2022/07/27 07:02:54;;;;;;;14.15;12.95;;;;;;;39.09;31.30;98928.16;5127117;28;20194;-58
2022/07/27 07:05:21;;;;;;;13.70;12.70;;;;;;;39.29;31.11;98923.09;5127072;28;20251;-64
2022/07/27 07:07:48;;;;;;;14.52;13.05;;;;;;;39.58;30.63;98932.06;5127272;28;20686;-65
2022/07/27 07:10:15;;;;;;;15.27;13.80;;;;;;;39.03;31.60;98935.41;5127150;28;20221;-63
2022/07/27 07:12:44;;;;;;;14.40;12.88;;;;;;;38.86;31.55;98932.59;5125679;28;20189;-57
2022/07/27 07:15:12;;;;;;;13.98;12.73;;;;;;;39.26;31.40;98928.22;5123596;28;20321;-57
2022/07/27 07:17:39;;;;;;;13.13;11.95;;;;;;;39.35;30.49;98927.56;5126936;28;20201;-57
2022/07/27 07:20:07;;;;;;;12.82;12.00;;;;;;;39.38;30.25;98926.25;5123584;28;20598;-58
2022/07/27 07:22:34;;;;;;;13.55;12.38;;;;;;;40.04;29.04;98930.94;5113224;28;20277;-58
2022/07/27 07:25:01;;;;;;;12.38;11.23;;;;;;;40.31;28.91;98927.53;5113066;28;20198;-58
2022/07/27 07:27:28;;;;;;;11.73;10.93;;;;;;;40.08;29.27;98933.97;5113120;28;20258;-58
2022/07/27 07:29:57;;;;;;;12.60;11.85;;;;;;;39.95;28.86;98923.47;5113148;28;20309;-58
2022/07/27 07:32:24;;;;;;;13.05;11.80;;;;;;;39.73;29.52;98926.06;5113122;28;20230;-58
2022/07/27 07:34:52;;;;;;;13.27;12.38;;;;;;;39.41;30.24;98926.59;5112911;28;20186;-58
2022/07/27 07:37:20;;;;;;;12.68;11.88;;;;;;;39.17;30.25;98903.34;5112544;28;20194;-57
2022/07/27 07:39:47;;;;;;;12.50;11.65;;;;;;;39.47;30.09;98914.78;5113080;28;20196;-57
2022/07/27 07:42:14;;;;;;;12.68;11.98;;;;;;;40.11;29.46;98919.88;5113086;28;20563;-57
2022/07/27 07:44:41;;;;;;;13.68;12.27;;;;;;;40.75;28.37;98922.97;5113007;28;20251;-67
2022/07/27 07:47:10;;;;;;;13.90;12.70;;;;;;;41.20;27.71;98928.13;5112679;28;20204;-65
2022/07/27 07:49:36;;;;;;;13.80;12.63;;;;;;;41.36;27.80;98921.72;5112675;28;20232;-65
2022/07/27 07:52:04;;;;;;;13.88;12.57;;;;;;;41.63;27.39;98922.56;5113127;28;20217;-66
2022/07/27 07:54:31;;;;;;;14.32;13.05;;;;;;;41.56;26.72;98919.22;5112733;28;20290;-66
2022/07/27 07:56:58;;;;;;;14.68;13.65;;;;;;;42.25;25.83;98916.44;5112783;28;20226;-58
2022/07/27 07:59:25;;;;;;;14.90;13.68;;;;;;;42.85;25.17;98917.03;5112602;28;20197;-58
2022/07/27 08:01:52;;;;;;;15.88;14.63;;;;;;;42.69;25.03;98924.31;5112408;28;20657;-58
2022/07/27 08:04:20;;;;;;;15.68;14.25;;;;;;;42.93;25.30;98917.34;5112558;28;20627;-64
2022/07/27 08:06:47;;;;;;;14.88;13.60;;;;;;;43.09;24.88;98905.38;5112792;28;20598;-64
2022/07/27 08:09:15;;;;;;;15.70;14.10;;;;;;;43.45;24.86;98919.94;5112272;28;20228;-58
2022/07/27 08:11:42;;;;;;;16.15;14.60;;;;;;;43.70;24.25;98919.09;5112351;28;20285;-59
2022/07/27 08:14:09;;;;;;;15.98;14.52;;;;;;;43.15;24.28;98900.72;5111283;28;20194;-58
2022/07/27 08:16:36;;;;;;;15.27;14.13;;;;;;;43.45;24.31;98916.38;5111442;28;20190;-64
2022/07/27 08:19:03;;;;;;;15.55;14.45;;;;;;;43.71;23.75;98918.00;5111558;28;20221;-64
2022/07/27 08:21:32;;;;;;;15.43;13.93;;;;;;;43.97;23.68;98912.56;5112449;28;20494;-64
2022/07/27 08:23:58;;;;;;;15.40;14.00;;;;;;;43.70;23.80;98908.19;5111148;28;20210;-58
2022/07/27 08:26:25;;;;;;;15.30;14.10;;;;;;;43.97;23.59;98913.38;5110726;28;20692;-57
2022/07/27 08:28:52;;;;;;;14.48;13.57;;;;;;;43.71;23.41;98915.28;5110533;28;20281;-58
2022/07/27 08:31:19;;;;;;;15.57;14.25;;;;;;;43.52;23.47;98902.41;5110254;28;20204;-58
2022/07/27 08:33:46;;;;;;;15.43;14.20;;;;;;;43.35;24.07;98900.75;5109629;28;20186;-58
2022/07/27 08:36:13;;;;;;;15.82;14.20;;;;;;;42.79;23.88;98902.53;5110236;28;20272;-58
2022/07/27 08:38:41;;;;;;;15.20;13.70;;;;;;;42.87;24.20;98907.50;5110425;28;20663;-66
2022/07/27 08:41:10;;;;;;;16.50;14.07;;;;;;;42.50;25.37;98904.88;5110373;27;20190;-58
2022/07/27 08:43:38;;;;;;;20.60;14.45;;;;;;;42.14;25.44;98895.66;5111641;28;20678;-59
2022/07/27 08:46:06;;;;;;;17.73;14.18;;;;;;;41.46;26.13;98891.84;5111397;28;20241;-59
2022/07/27 08:48:33;;;;;;;15.73;14.50;;;;;;;41.15;26.62;98901.66;5111719;28;20198;-58
2022/07/27 08:51:00;;;;;;;16.15;14.57;;;;;;;41.09;26.83;98897.19;5111647;28;20304;-57
2022/07/27 08:53:31;;;;;;;14.63;13.18;;;;;;;40.91;26.60;98887.50;5111483;28;20198;-58
2022/07/27 08:55:59;;;;;;;15.40;13.93;;;;;;;41.11;26.51;98886.06;5111329;28;20194;-58
2022/07/27 08:58:26;;;;;;;14.77;13.70;;;;;;;41.18;26.10;98870.38;5111365;28;20204;-59
2022/07/27 09:00:53;;;;;;;16.05;14.50;;;;;;;41.45;25.95;98890.22;5111534;28;20602;-58
2022/07/27 09:03:22;;;;;;;16.65;14.20;;;;;;;41.43;25.83;98867.84;5111561;28;20198;-57
2022/07/27 09:05:51;;;;;;;16.13;14.38;;;;;;;41.66;25.87;98883.88;5111504;28;20277;-59
2022/07/27 09:08:22;;;;;;;14.85;13.73;;;;;;;41.40;26.60;98876.56;5111307;28;20202;-59
2022/07/27 09:10:50;;;;;;;20.23;14.57;;;;;;;41.49;26.32;98875.00;5111242;28;20703;-62
2022/07/27 09:13:24;;;;;;;26.25;13.93;;;;;;;41.54;26.49;98869.59;5111002;28;20198;-62
2022/07/27 09:15:53;;;;;;;15.93;14.43;;;;;;;41.63;26.50;98870.78;5110858;28;20612;-64
2022/07/27 09:18:22;;;;;;;25.67;14.80;;;;;;;41.55;26.48;98876.69;5110849;28;20200;-58
2022/07/27 09:21:09;;;;;;;15.27;13.82;;;;;;;41.23;25.83;98851.34;5110574;28;20232;-64
2022/07/27 09:23:36;;;;;;;15.75;14.07;;;;;;;41.43;26.41;98867.03;5110644;28;20202;-65
2022/07/27 09:26:11;;;;;;;15.50;14.00;;;;;;;40.73;26.55;98862.53;5111035;28;20593;-65
2022/07/27 09:28:40;;;;;;;14.98;13.68;;;;;;;40.96;26.06;98846.72;5110133;28;20232;-64
2022/07/27 09:31:09;;;;;;;16.23;14.63;;;;;;;41.34;26.11;98864.78;5107098;28;20222;-65
2022/07/27 09:33:44;;;;;;;15.07;13.90;;;;;;;41.52;25.76;98865.50;5104797;28;20213;-65
2022/07/27 09:36:11;;;;;;;14.38;13.35;;;;;;;41.68;25.98;98859.09;5105972;28;20235;-63
2022/07/27 09:38:38;;;;;;;15.32;13.82;;;;;;;41.42;25.97;98862.69;5110173;28;20594;-64
2022/07/27 09:41:06;;;;;;;14.73;13.60;;;;;;;41.42;25.92;98858.06;5109670;28;20217;-64
2022/07/27 09:43:46;;;;;;;14.40;13.40;;;;;;;41.79;25.74;98847.16;5109659;28;20222;-64
2022/07/27 09:46:13;;;;;;;14.95;13.70;;;;;;;41.94;25.02;98851.91;5098295;28;20629;-64
2022/07/27 09:48:41;;;;;;;14.45;13.00;;;;;;;42.04;25.21;98851.97;5109567;28;20230;-63
2022/07/27 09:51:10;;;;;;;13.90;12.80;;;;;;;41.91;24.76;98846.97;5109019;28;20625;-64
2022/07/27 09:53:37;;;;;;;13.30;12.30;;;;;;;42.37;24.56;98851.63;5109882;28;20301;-58
2022/07/27 09:56:06;;;;;;;17.92;13.45;;;;;;;42.39;24.46;98830.34;5109779;28;20209;-58
2022/07/27 09:58:42;;;;;;;14.25;13.25;;;;;;;41.97;25.34;98843.22;5110024;28;20599;-59
2022/07/27 10:01:12;;;;;;;16.45;14.80;;;;;;;41.87;25.08;98843.97;5109532;28;20251;-63
2022/07/27 10:03:40;;;;;;;16.90;13.48;;;;;;;41.47;24.91;98840.91;5109984;28;20609;-63
2022/07/27 10:06:08;;;;;;;14.10;13.13;;;;;;;41.66;24.92;98844.88;5108854;28;20515;-62
2022/07/27 10:08:37;;;;;;;14.27;13.13;;;;;;;41.01;25.48;98848.66;5109772;28;20213;-63
2022/07/27 10:11:04;;;;;;;16.05;14.60;;;;;;;40.76;25.92;98832.88;5106752;28;20229;-58
2022/07/27 10:13:31;;;;;;;15.52;13.93;;;;;;;41.03;25.83;98835.63;5110050;28;20220;-58
2022/07/27 10:15:59;;;;;;;14.00;12.85;;;;;;;40.98;25.29;98839.09;5110180;28;20196;-58
2022/07/27 10:18:38;;;;;;;12.57;11.82;;;;;;;40.76;25.40;98835.59;5110258;28;20698;-58
2022/07/27 10:21:08;;;;;;;13.95;12.93;;;;;;;40.69;25.25;98829.53;5109943;28;20197;-59
2022/07/27 10:34:42;;;;;;;14.82;13.45;;;;;;;40.02;26.38;98818.91;5087487;27;20548;-59
2022/07/27 10:37:10;;;;;;;15.85;13.88;;;;;;;39.95;25.99;98821.00;5087137;28;20194;-66
2022/07/27 10:39:39;;;;;;;14.70;13.02;;;;;;;39.59;25.92;98816.09;5087813;28;20194;-66
2022/07/27 10:42:26;;;;;;;13.63;12.50;;;;;;;39.31;26.10;98817.78;5085144;28;20226;-59
2022/07/27 10:44:56;;;;;;;13.20;12.23;;;;;;;39.23;25.76;98815.50;5086391;28;20201;-63
2022/07/27 10:47:32;;;;;;;12.60;11.65;;;;;;;38.83;26.22;98807.44;5086151;28;20195;-64
2022/07/27 10:50:24;;;;;;;12.30;11.50;;;;;;;38.75;25.93;98813.25;5086089;28;20214;-65
2022/07/27 10:52:54;;;;;;;12.50;11.63;;;;;;;38.68;25.75;98813.41;5086758;28;20219;-63
2022/07/27 10:55:47;;;;;;;11.52;10.50;;;;;;;38.44;25.14;98804.50;5087185;28;20191;-64
2022/07/27 10:58:50;;;;;;;11.45;10.55;;;;;;;38.55;25.46;98796.59;5087785;28;20625;-64
2022/07/27 11:01:26;;;;;;;11.40;10.70;;;;;;;38.61;25.54;98795.63;5086902;28;20198;-65
2022/07/27 11:03:52;;;;;;;11.43;10.77;;;;;;;38.65;25.73;98794.91;5086755;28;20226;-64
2022/07/27 11:06:32;;;;;;;11.02;10.15;;;;;;;38.75;25.20;98796.97;5087341;28;20595;-65
2022/07/27 11:09:01;;;;;;;11.55;10.75;;;;;;;38.62;25.63;98784.53;5087228;28;20230;-66
2022/07/27 11:11:28;;;;;;;12.18;11.35;;;;;;;38.51;25.53;98796.22;5087262;28;20206;-64
2022/07/27 11:13:58;;;;;;;11.75;10.85;;;;;;;38.34;25.23;98785.34;5087131;28;20584;-64
2022/07/27 11:16:28;;;;;;;12.43;11.27;;;;;;;38.39;25.44;98781.88;5087505;28;20660;-65
2022/07/27 11:19:03;;;;;;;13.57;10.80;;;;;;;38.41;25.69;98785.19;5087188;28;20201;-65
2022/07/27 11:21:34;;;;;;;11.10;10.45;;;;;;;38.10;25.86;98783.75;5086825;28;20199;-59
2022/07/27 11:24:04;;;;;;;11.95;10.95;;;;;;;37.81;25.57;98766.59;5087150;28;20221;-64
2022/07/27 11:26:38;;;;;;;11.02;10.07;;;;;;;37.98;25.72;98775.63;5081887;28;20206;-65
2022/07/27 11:29:07;;;;;;;10.13;9.52;;;;;;;38.01;25.14;98774.34;5066037;28;20200;-59
2022/07/27 11:31:36;;;;;;;10.05;9.38;;;;;;;37.99;24.65;98773.75;5065903;28;20192;-64
2022/07/27 11:34:03;;;;;;;10.00;9.02;;;;;;;37.84;24.20;98752.56;5061069;28;20224;-59
2022/07/27 11:36:42;;;;;;;9.90;9.02;;;;;;;37.90;24.29;98767.06;5052653;28;20200;-65
2022/07/27 11:39:11;;;;;;;10.20;9.30;;;;;;;37.98;24.62;98769.38;5070577;28;20198;-65
2022/07/27 11:41:39;;;;;;;11.23;9.75;;;;;;;37.92;24.29;98762.22;5073414;28;20242;-66
2022/07/27 11:44:08;;;;;;;9.95;9.30;;;;;;;38.21;23.84;98757.69;5072549;28;20310;-65
2022/07/27 11:46:41;;;;;;;11.50;10.20;;;;;;;38.25;24.05;98756.16;5072495;28;20213;-65
2022/07/27 11:49:10;;;;;;;11.48;10.32;;;;;;;37.98;24.76;98759.38;5072562;28;20199;-59